Time;durP1;ratioP1;P1;durP2;ratioP2;P2;SDS_P1;SDS_P2;PMS_P1;PMS_P2;Temp;Humidity;BMP_temperature;BMP_pressure;BME280_temperature;BME280_humidity;BME280_pressure;Samples;Min_cycle;Max_cycle;Signal;HPM_P1;HPM_P2
2022/03/22 00:02:01;;;;;;;;;;;;;;;;;;2214089;59;1708;-73
2022/03/22 00:04:34;;;;;;;;;;;;;;;;;;2214023;67;1936;-73
2022/03/22 00:07:08;;;;;;;;;;;;;;;;;;2213428;59;2085;-73
2022/03/22 00:09:41;;;;;;;;;;;;;;;;;;2215065;59;1246;-73
2022/03/22 00:12:14;;;;;;;;;;;;;;;;;;2214119;67;2150;-73
2022/03/22 00:14:48;;;;;;;;;;;;;;;;;;2214891;67;1270;-73
2022/03/22 00:17:24;;;;;;;;;;;;;;;;;;2215379;59;1674;-73
2022/03/22 00:19:57;;;;;;;;;;;;;;;;;;2214210;59;1537;-73
2022/03/22 00:25:05;;;;;;;;;;;;;;;;;;2206554;59;2138;-69
2022/03/22 00:30:30;;;;;;;;;;;;;;;;;;2213171;67;1160;-69
2022/03/22 00:33:08;;;;;;;;;;;;;;;;;;2211716;67;1203;-69
2022/03/22 00:35:42;;;;;;;;;;;;;;;;;;2207411;59;1911;-69
2022/03/22 00:38:16;;;;;;;;;;;;;;;;;;2208512;67;1223;-69
2022/03/22 00:40:50;;;;;;;;;;;;;;;;;;2208762;59;1159;-69
2022/03/22 00:43:23;;;;;;;;;;;;;;;;;;2208541;59;1757;-69
2022/03/22 00:45:56;;;;;;;;;;;;;;;;;;2211707;59;1940;-69
2022/03/22 00:48:32;;;;;;;;;;;;;;;;;;2211611;67;1328;-69
2022/03/22 00:51:05;;;;;;;;;;;;;;;;;;2212379;67;1243;-69
2022/03/22 00:53:38;;;;;;;;;;;;;;;;;;2212587;67;1129;-69
2022/03/22 00:56:11;;;;;;;;;;;;;;;;;;2213241;59;1149;-69
2022/03/22 00:58:44;;;;;;;;;;;;;;;;;;2213611;59;1238;-69
2022/03/22 01:01:17;;;;;;;;;;;;;;;;;;2213297;67;1142;-69
2022/03/22 01:03:53;;;;;;;;;;;;;;;;;;2211287;59;1927;-69
2022/03/22 01:06:26;;;;;;;;;;;;;;;;;;2212890;67;1202;-69
2022/03/22 01:09:00;;;;;;;;;;;;;;;;;;2213359;67;1062;-69
2022/03/22 01:11:33;;;;;;;;;;;;;;;;;;2209497;59;2108;-69
2022/03/22 01:14:07;;;;;;;;;;;;;;;;;;2213294;67;1242;-69
2022/03/22 01:16:40;;;;;;;;;;;;;;;;;;2213082;67;1156;-69
2022/03/22 01:19:21;;;;;;;;;;;;;;;;;;2213232;67;1287;-69
2022/03/22 01:21:55;;;;;;;;;;;;;;;;;;2212919;67;1088;-69
2022/03/22 01:24:29;;;;;;;;;;;;;;;;;;2210714;59;1993;-69
2022/03/22 01:27:02;;;;;;;;;;;;;;;;;;2212554;59;1133;-69
2022/03/22 01:29:35;;;;;;;;;;;;;;;;;;2212520;67;1188;-69
2022/03/22 01:32:09;;;;;;;;;;;;;;;;;;2213110;59;1127;-69
2022/03/22 01:34:45;;;;;;;;;;;;;;;;;;2212337;59;1254;-69
2022/03/22 01:37:18;;;;;;;;;;;;;;;;;;2213086;59;1836;-69
2022/03/22 01:39:51;;;;;;;;;;;;;;;;;;2212655;60;1188;-69
2022/03/22 01:42:25;;;;;;;;;;;;;;;;;;2213451;67;1242;-69
2022/03/22 01:44:58;;;;;;;;;;;;;;;;;;2212176;59;1963;-69
2022/03/22 01:47:32;;;;;;;;;;;;;;;;;;2211374;67;1253;-69
2022/03/22 01:50:09;;;;;;;;;;;;;;;;;;2212208;59;1617;-69
2022/03/22 01:52:43;;;;;;;;;;;;;;;;;;2212098;59;1239;-69
2022/03/22 01:55:17;;;;;;;;;;;;;;;;;;2213332;59;1298;-69
2022/03/22 01:57:51;;;;;;;;;;;;;;;;;;2212079;59;1165;-69
2022/03/22 02:00:24;;;;;;;;;;;;;;;;;;2213590;67;1198;-70
2022/03/22 02:05:55;;;;;;;;;;;;;;;;;;2212875;67;1929;-69
2022/03/22 02:08:29;;;;;;;;;;;;;;;;;;2212189;67;1156;-69
2022/03/22 02:11:03;;;;;;;;;;;;;;;;;;2213413;67;1098;-69
2022/03/22 02:13:36;;;;;;;;;;;;;;;;;;2212484;59;1943;-69
2022/03/22 02:16:09;;;;;;;;;;;;;;;;;;2214120;59;1191;-69
2022/03/22 02:18:43;;;;;;;;;;;;;;;;;;2213163;67;1170;-68
2022/03/22 02:21:21;;;;;;;;;;;;;;;;;;2213403;59;1360;-69
2022/03/22 02:23:57;;;;;;;;;;;;;;;;;;2208142;59;1674;-69
2022/03/22 02:26:30;;;;;;;;;;;;;;;;;;2212371;59;1989;-69
2022/03/22 02:29:04;;;;;;;;;;;;;;;;;;2209790;67;1160;-69
2022/03/22 02:31:38;;;;;;;;;;;;;;;;;;2212106;59;1165;-69
2022/03/22 02:34:11;;;;;;;;;;;;;;;;;;2213109;59;1246;-69
2022/03/22 02:36:44;;;;;;;;;;;;;;;;;;2212700;59;1932;-69
2022/03/22 02:39:20;;;;;;;;;;;;;;;;;;2212372;67;1223;-69
2022/03/22 02:41:53;;;;;;;;;;;;;;;;;;2212256;59;1177;-69
2022/03/22 02:44:27;;;;;;;;;;;;;;;;;;2208323;59;1928;-69
2022/03/22 02:47:00;;;;;;;;;;;;;;;;;;2212726;67;1098;-69
2022/03/22 02:49:34;;;;;;;;;;;;;;;;;;2211739;59;1289;-69
2022/03/22 02:52:07;;;;;;;;;;;;;;;;;;2211852;59;1095;-69
2022/03/22 02:54:44;;;;;;;;;;;;;;;;;;2213380;67;1264;-69
2022/03/22 02:57:17;;;;;;;;;;;;;;;;;;2213617;67;1208;-68
2022/03/22 02:59:50;;;;;;;;;;;;;;;;;;2213908;59;1232;-69
2022/03/22 03:02:23;;;;;;;;;;;;;;;;;;2213561;67;1076;-68
2022/03/22 03:04:56;;;;;;;;;;;;;;;;;;2212088;59;1927;-69
2022/03/22 03:07:29;;;;;;;;;;;;;;;;;;2213431;67;1120;-68
2022/03/22 03:10:05;;;;;;;;;;;;;;;;;;2213914;67;1080;-69
2022/03/22 03:12:39;;;;;;;;;;;;;;;;;;2211888;59;1975;-69
2022/03/22 03:15:13;;;;;;;;;;;;;;;;;;2212512;59;1088;-69
2022/03/22 03:17:46;;;;;;;;;;;;;;;;;;2213889;67;1279;-69
2022/03/22 03:20:19;;;;;;;;;;;;;;;;;;2213735;59;1229;-69
2022/03/22 03:22:52;;;;;;;;;;;;;;;;;;2212424;59;1560;-69
2022/03/22 03:25:28;;;;;;;;;;;;;;;;;;2212233;67;1941;-69
2022/03/22 03:28:01;;;;;;;;;;;;;;;;;;2214678;59;1096;-69
2022/03/22 03:30:35;;;;;;;;;;;;;;;;;;2212384;67;1265;-69
2022/03/22 03:33:08;;;;;;;;;;;;;;;;;;2213923;67;1344;-69
2022/03/22 03:35:41;;;;;;;;;;;;;;;;;;2212714;67;2245;-69
2022/03/22 03:38:14;;;;;;;;;;;;;;;;;;2213315;59;1132;-69
2022/03/22 03:43:39;;;;;;;;;;;;;;;;;;2213112;59;1705;-69
2022/03/22 03:49:01;;;;;;;;;;;;;;;;;;2213745;67;1010;-69
2022/03/22 03:51:35;;;;;;;;;;;;;;;;;;2212074;67;1208;-69
2022/03/22 03:54:09;;;;;;;;;;;;;;;;;;2209277;67;1403;-69
2022/03/22 03:56:45;;;;;;;;;;;;;;;;;;2213043;67;1275;-69
2022/03/22 03:59:18;;;;;;;;;;;;;;;;;;2213909;67;1171;-69
2022/03/22 04:01:51;;;;;;;;;;;;;;;;;;2213607;67;1359;-69
2022/03/22 04:04:24;;;;;;;;;;;;;;;;;;2211766;59;1688;-68
2022/03/22 04:06:58;;;;;;;;;;;;;;;;;;2213151;67;1933;-68
2022/03/22 04:09:31;;;;;;;;;;;;;;;;;;2213114;67;1084;-68
2022/03/22 04:12:07;;;;;;;;;;;;;;;;;;2212537;67;2354;-69
2022/03/22 04:14:41;;;;;;;;;;;;;;;;;;2213805;67;1260;-68
2022/03/22 04:17:14;;;;;;;;;;;;;;;;;;2213267;67;1192;-68
2022/03/22 04:19:48;;;;;;;;;;;;;;;;;;2213851;67;1261;-69
2022/03/22 04:22:22;;;;;;;;;;;;;;;;;;2213926;59;1169;-69
2022/03/22 04:24:55;;;;;;;;;;;;;;;;;;2211736;59;1948;-68
2022/03/22 04:33:09;;;;;;;;;;;;;;;;;;2209470;67;1278;-69
2022/03/22 04:35:42;;;;;;;;;;;;;;;;;;2213226;59;2230;-69
2022/03/22 04:38:15;;;;;;;;;;;;;;;;;;2213225;67;1145;-68
2022/03/22 04:40:48;;;;;;;;;;;;;;;;;;2213570;67;1233;-68
2022/03/22 04:43:24;;;;;;;;;;;;;;;;;;2213294;59;1780;-69
2022/03/22 04:45:57;;;;;;;;;;;;;;;;;;2213791;67;1931;-69
2022/03/22 04:48:31;;;;;;;;;;;;;;;;;;2211931;67;1091;-69
2022/03/22 04:56:48;;;;;;;;;;;;;;;;;;2202185;67;1337;-69
2022/03/22 04:59:24;;;;;;;;;;;;;;;;;;2213820;67;1234;-69
2022/03/22 05:01:59;;;;;;;;;;;;;;;;;;2212593;67;1229;-70
2022/03/22 05:04:32;;;;;;;;;;;;;;;;;;2210782;59;1693;-69
2022/03/22 05:07:06;;;;;;;;;;;;;;;;;;2211297;67;1930;-69
2022/03/22 05:09:40;;;;;;;;;;;;;;;;;;2213482;67;1140;-69
2022/03/22 05:12:13;;;;;;;;;;;;;;;;;;2213020;59;1813;-68
2022/03/22 05:14:50;;;;;;;;;;;;;;;;;;2213687;59;1199;-69
2022/03/22 05:17:23;;;;;;;;;;;;;;;;;;2212529;67;1093;-68
2022/03/22 05:19:57;;;;;;;;;;;;;;;;;;2212923;59;1349;-69
2022/03/22 05:22:30;;;;;;;;;;;;;;;;;;2212107;67;1226;-68
2022/03/22 05:25:04;;;;;;;;;;;;;;;;;;2211235;59;1931;-69
2022/03/22 05:27:37;;;;;;;;;;;;;;;;;;2214173;67;1240;-68
2022/03/22 05:30:14;;;;;;;;;;;;;;;;;;2213231;67;1140;-69
2022/03/22 05:32:47;;;;;;;;;;;;;;;;;;2213013;67;1310;-68
2022/03/22 05:35:20;;;;;;;;;;;;;;;;;;2213197;59;1092;-69
2022/03/22 05:37:53;;;;;;;;;;;;;;;;;;2213110;59;1951;-68
2022/03/22 05:40:26;;;;;;;;;;;;;;;;;;2214028;67;1060;-69
2022/03/22 05:43:00;;;;;;;;;;;;;;;;;;2211892;59;1658;-69
2022/03/22 05:45:36;;;;;;;;;;;;;;;;;;2210991;67;1988;-69
2022/03/22 05:48:10;;;;;;;;;;;;;;;;;;2211501;67;1144;-68
2022/03/22 05:50:43;;;;;;;;;;;;;;;;;;2212813;67;1254;-69
2022/03/22 05:53:16;;;;;;;;;;;;;;;;;;2213251;67;1177;-69
2022/03/22 05:55:50;;;;;;;;;;;;;;;;;;2213337;67;1117;-69
2022/03/22 05:58:23;;;;;;;;;;;;;;;;;;2212691;67;1202;-69
2022/03/22 06:01:00;;;;;;;;;;;;;;;;;;2211636;67;1213;-68
2022/03/22 06:03:33;;;;;;;;;;;;;;;;;;2211874;59;1732;-69
2022/03/22 06:06:06;;;;;;;;;;;;;;;;;;2210865;67;1919;-69
2022/03/22 06:08:40;;;;;;;;;;;;;;;;;;2211659;59;1268;-69
2022/03/22 06:11:13;;;;;;;;;;;;;;;;;;2212848;67;1113;-69
2022/03/22 06:13:46;;;;;;;;;;;;;;;;;;2211811;67;2273;-69
2022/03/22 06:16:22;;;;;;;;;;;;;;;;;;2209072;60;1187;-69
2022/03/22 06:18:55;;;;;;;;;;;;;;;;;;2212659;67;1282;-69
2022/03/22 06:21:29;;;;;;;;;;;;;;;;;;2208535;59;1266;-69
2022/03/22 06:24:28;;;;;;;;;;;;;;;;;;2212576;53;3511;-70
2022/03/22 06:27:03;;;;;;;;;;;;;;;;;;2212686;59;1936;-69
2022/03/22 06:35:39;;;;;;;;;;;;;;;;;;2211307;59;2007;-69
2022/03/22 06:38:12;;;;;;;;;;;;;;;;;;2211651;67;1238;-69
2022/03/22 06:41:09;;;;;;;;;;;;;;;;;;2211718;59;1139;-69
2022/03/22 06:47:08;;;;;;;;;;;;;;;;;;2211198;67;1983;-69
2022/03/22 06:52:44;;;;;;;;;;;;;;;;;;2210134;67;1283;-69
2022/03/22 06:58:34;;;;;;;;;;;;;;;;;;2208161;67;1182;-70
2022/03/22 07:01:10;;;;;;;;;;;;;;;;;;2211842;67;1137;-70
2022/03/22 07:03:43;;;;;;;;;;;;;;;;;;2210265;59;1671;-69
2022/03/22 07:06:22;;;;;;;;;;;;;;;;;;2211839;67;1921;-69
2022/03/22 07:08:56;;;;;;;;;;;;;;;;;;2211673;59;2251;-69
2022/03/22 07:14:22;;;;;;;;;;;;;;;;;;2211458;67;1242;-69
2022/03/22 07:16:56;;;;;;;;;;;;;;;;;;2211094;67;1168;-69
2022/03/22 07:22:39;;;;;;;;;;;;;;;;;;2211737;67;1286;-69
2022/03/22 07:28:28;;;;;;;;;;;;;;;;;;2206800;60;1095;-70
2022/03/22 07:31:04;;;;;;;;;;;;;;;;;;2207478;67;1158;-70
2022/03/22 07:33:37;;;;;;;;;;;;;;;;;;2211313;67;1360;-70
2022/03/22 07:39:34;;;;;;;;;;;;;;;;;;;;;
2022/03/22 07:42:09;;;;;;;;;;;;;;;;;;2210697;59;1768;-70
2022/03/22 07:44:48;;;;;;;;;;;;;;;;;;2211166;59;1822;-70
2022/03/22 07:47:21;;;;;;;;;;;;;;;;;;2211321;67;1912;-70
2022/03/22 07:53:10;;;;;;;;;;;;;;;;;;2210832;59;1763;-69
2022/03/22 07:55:54;;;;;;;;;;;;;;;;;;2210780;67;1737;-70
2022/03/22 07:58:30;;;;;;;;;;;;;;;;;;2211471;59;1259;-70
2022/03/22 08:04:41;;;;;;;;;;;;;;;;;;2210031;59;1770;-70
2022/03/22 08:07:15;;;;;;;;;;;;;;;;;;2207334;67;2374;-70
2022/03/22 08:09:48;;;;;;;;;;;;;;;;;;2211620;67;1321;-70
2022/03/22 08:12:25;;;;;;;;;;;;;;;;;;2212112;59;1934;-70
2022/03/22 08:14:58;;;;;;;;;;;;;;;;;;2210816;67;1264;-70
2022/03/22 08:17:31;;;;;;;;;;;;;;;;;;2210835;59;1240;-70
2022/03/22 08:20:05;;;;;;;;;;;;;;;;;;2210541;59;1082;-70
2022/03/22 08:22:50;;;;;;;;;;;;;;;;;;2211165;67;1244;-70
2022/03/22 08:25:34;;;;;;;;;;;;;;;;;;2211011;59;1112;-69
2022/03/22 08:28:12;;;;;;;;;;;;;;;;;;2210629;67;1928;-70
2022/03/22 08:30:49;;;;;;;;;;;;;;;;;;2210849;67;1116;-69
2022/03/22 08:33:22;;;;;;;;;;;;;;;;;;2211423;67;1331;-69
2022/03/22 08:35:55;;;;;;;;;;;;;;;;;;2210574;67;1305;-70
2022/03/22 08:38:28;;;;;;;;;;;;;;;;;;2211727;67;1161;-70
2022/03/22 08:41:08;;;;;;;;;;;;;;;;;;2211334;67;1149;-70
2022/03/22 08:43:44;;;;;;;;;;;;;;;;;;2210173;59;1934;-70
2022/03/22 08:46:20;;;;;;;;;;;;;;;;;;2211484;67;1918;-70
2022/03/22 08:48:55;;;;;;;;;;;;;;;;;;2210998;67;1238;-70
2022/03/22 08:51:29;;;;;;;;;;;;;;;;;;2211772;67;1137;-70
2022/03/22 08:54:11;;;;;;;;;;;;;;;;;;2209846;67;1252;-70
2022/03/22 08:56:44;;;;;;;;;;;;;;;;;;2211244;67;1158;-70
2022/03/22 08:59:21;;;;;;;;;;;;;;;;;;2211237;67;1238;-70
2022/03/22 09:01:54;;;;;;;;;;;;;;;;;;2210639;59;1656;-70
2022/03/22 09:07:16;;;;;;;;;;;;;;;;;;2211567;59;1990;-69
2022/03/22 09:09:49;;;;;;;;;;;;;;;;;;2211161;67;1267;-69
2022/03/22 09:12:23;;;;;;;;;;;;;;;;;;2211404;59;1845;-69
2022/03/22 09:14:59;;;;;;;;;;;;;;;;;;2210709;67;1306;-70
2022/03/22 09:17:32;;;;;;;;;;;;;;;;;;2211014;67;1240;-69
2022/03/22 09:20:05;;;;;;;;;;;;;;;;;;2210539;67;1274;-69
2022/03/22 09:22:38;;;;;;;;;;;;;;;;;;2210824;67;1232;-70
2022/03/22 09:25:12;;;;;;;;;;;;;;;;;;2210912;59;1952;-70
2022/03/22 09:27:45;;;;;;;;;;;;;;;;;;2211297;67;1960;-70
2022/03/22 09:30:22;;;;;;;;;;;;;;;;;;2211358;67;1220;-70
2022/03/22 09:32:56;;;;;;;;;;;;;;;;;;2210863;59;1704;-70
2022/03/22 09:35:30;;;;;;;;;;;;;;;;;;2211175;67;1151;-70
2022/03/22 09:38:04;;;;;;;;;;;;;;;;;;2211040;67;1073;-70
2022/03/22 09:40:37;;;;;;;;;;;;;;;;;;2211281;67;1163;-70
2022/03/22 09:43:11;;;;;;;;;;;;;;;;;;2211221;59;1706;-70
2022/03/22 09:45:48;;;;;;;;;;;;;;;;;;2210737;67;1211;-70
2022/03/22 09:48:21;;;;;;;;;;;;;;;;;;2211313;67;1924;-70
2022/03/22 09:53:40;;;;;;;;;;;;;;;;;;2203212;67;1259;-70
2022/03/22 09:56:13;;;;;;;;;;;;;;;;;;2212300;59;1117;-70
2022/03/22 09:58:47;;;;;;;;;;;;;;;;;;2211771;67;1123;-70
2022/03/22 10:01:23;;;;;;;;;;;;;;;;;;2212147;67;1159;-70
2022/03/22 10:03:57;;;;;;;;;;;;;;;;;;2211670;59;1954;-70
2022/03/22 10:06:31;;;;;;;;;;;;;;;;;;2212364;59;1937;-70
2022/03/22 10:09:05;;;;;;;;;;;;;;;;;;2211254;67;1278;-70
2022/03/22 10:11:39;;;;;;;;;;;;;;;;;;2212358;67;1987;-70
2022/03/22 10:14:15;;;;;;;;;;;;;;;;;;2212030;67;1297;-69
2022/03/22 10:16:52;;;;;;;;;;;;;;;;;;2212184;67;1267;-70
2022/03/22 10:19:28;;;;;;;;;;;;;;;;;;2212102;67;1232;-70
2022/03/22 10:22:10;;;;;;;;;;;;;;;;;;2211906;59;1310;-70
2022/03/22 10:24:44;;;;;;;;;;;;;;;;;;2211109;59;1817;-70
2022/03/22 10:27:26;;;;;;;;;;;;;;;;;;2212224;67;2001;-70
2022/03/22 10:30:00;;;;;;;;;;;;;;;;;;2212433;67;1096;-70
2022/03/22 10:32:38;;;;;;;;;;;;;;;;;;2211898;59;1266;-70
2022/03/22 10:35:12;;;;;;;;;;;;;;;;;;2211265;59;1700;-69
2022/03/22 10:37:46;;;;;;;;;;;;;;;;;;2211876;59;1743;-70
2022/03/22 10:40:29;;;;;;;;;;;;;;;;;;2212237;67;1256;-70
2022/03/22 10:43:07;;;;;;;;;;;;;;;;;;2211991;59;1712;-70
2022/03/22 10:45:44;;;;;;;;;;;;;;;;;;2211609;67;1201;-70
2022/03/22 10:48:22;;;;;;;;;;;;;;;;;;2212614;67;1979;-70
2022/03/22 10:50:57;;;;;;;;;;;;;;;;;;2211858;59;1272;-71
2022/03/22 10:53:31;;;;;;;;;;;;;;;;;;2208288;67;1259;-70
2022/03/22 10:56:05;;;;;;;;;;;;;;;;;;2211006;59;1077;-70
2022/03/22 10:58:39;;;;;;;;;;;;;;;;;;2211860;59;1245;-70
2022/03/22 11:01:15;;;;;;;;;;;;;;;;;;2212175;67;1177;-70
2022/03/22 11:03:52;;;;;;;;;;;;;;;;;;2211520;59;1741;-70
2022/03/22 11:06:28;;;;;;;;;;;;;;;;;;2211838;67;1374;-70
2022/03/22 11:09:03;;;;;;;;;;;;;;;;;;2211672;59;1934;-70
2022/03/22 11:11:36;;;;;;;;;;;;;;;;;;2212373;59;1926;-70
2022/03/22 11:14:10;;;;;;;;;;;;;;;;;;2211078;59;1274;-70
2022/03/22 11:16:44;;;;;;;;;;;;;;;;;;2211514;67;1126;-70
2022/03/22 11:19:21;;;;;;;;;;;;;;;;;;2211927;67;1182;-70
2022/03/22 11:21:54;;;;;;;;;;;;;;;;;;2211260;59;1236;-70
2022/03/22 11:24:27;;;;;;;;;;;;;;;;;;2211184;59;1837;-70
2022/03/22 11:27:01;;;;;;;;;;;;;;;;;;2211658;67;1917;-70
2022/03/22 11:29:35;;;;;;;;;;;;;;;;;;2211329;67;1200;-70
2022/03/22 11:35:01;;;;;;;;;;;;;;;;;;2211090;67;1223;-70
2022/03/22 11:37:35;;;;;;;;;;;;;;;;;;2211265;59;1244;-70
2022/03/22 11:43:11;;;;;;;;;;;;;;;;;;2210512;59;1796;-70
2022/03/22 11:45:48;;;;;;;;;;;;;;;;;;2210830;59;1237;-70
2022/03/22 11:48:33;;;;;;;;;;;;;;;;;;2211420;67;1935;-70
2022/03/22 11:51:09;;;;;;;;;;;;;;;;;;2211157;59;1268;-70
2022/03/22 11:53:44;;;;;;;;;;;;;;;;;;2210770;59;1190;-70
2022/03/22 11:56:17;;;;;;;;;;;;;;;;;;2208101;67;1271;-70
2022/03/22 11:58:53;;;;;;;;;;;;;;;;;;2211486;67;1204;-70
2022/03/22 12:01:36;;;;;;;;;;;;;;;;;;2211389;67;1207;-70
2022/03/22 12:04:16;;;;;;;;;;;;;;;;;;2210744;59;1560;-70
2022/03/22 12:06:55;;;;;;;;;;;;;;;;;;2211181;67;2159;-70
2022/03/22 12:09:28;;;;;;;;;;;;;;;;;;2212042;67;1996;-70
2022/03/22 12:12:06;;;;;;;;;;;;;;;;;;2211718;59;1921;-70
2022/03/22 12:14:39;;;;;;;;;;;;;;;;;;2211255;59;1242;-70
2022/03/22 12:17:12;;;;;;;;;;;;;;;;;;2211632;67;1288;-70
2022/03/22 12:19:45;;;;;;;;;;;;;;;;;;2210678;59;1358;-70
2022/03/22 12:22:23;;;;;;;;;;;;;;;;;;2211586;67;1239;-70
2022/03/22 12:24:59;;;;;;;;;;;;;;;;;;2209043;59;3600;-73
2022/03/22 12:27:32;;;;;;;;;;;;;;;;;;2210106;59;1993;-73
2022/03/22 12:30:06;;;;;;;;;;;;;;;;;;2209711;59;1287;-73
2022/03/22 12:32:39;;;;;;;;;;;;;;;;;;2212925;67;1361;-73
2022/03/22 12:35:13;;;;;;;;;;;;;;;;;;2209869;67;1233;-73
2022/03/22 12:37:50;;;;;;;;;;;;;;;;;;2210661;67;1290;-73
2022/03/22 12:40:24;;;;;;;;;;;;;;;;;;2209973;67;1212;-73
2022/03/22 12:42:58;;;;;;;;;;;;;;;;;;2210461;60;1263;-73
2022/03/22 12:45:32;;;;;;;;;;;;;;;;;;2209291;59;2077;-73
2022/03/22 12:48:05;;;;;;;;;;;;;;;;;;2209890;67;1934;-73
2022/03/22 12:50:38;;;;;;;;;;;;;;;;;;2209768;67;1261;-73
2022/03/22 12:53:15;;;;;;;;;;;;;;;;;;2209492;67;1175;-73
2022/03/22 12:55:48;;;;;;;;;;;;;;;;;;2209974;67;1255;-73
2022/03/22 12:58:27;;;;;;;;;;;;;;;;;;2209033;59;1270;-73
2022/03/22 13:01:01;;;;;;;;;;;;;;;;;;2209612;67;1144;-73
2022/03/22 13:03:36;;;;;;;;;;;;;;;;;;2210073;59;1571;-73
2022/03/22 13:06:11;;;;;;;;;;;;;;;;;;2210077;67;1175;-73
2022/03/22 13:11:51;;;;;;;;;;;;;;;;;;2193845;59;2172;-73
2022/03/22 13:17:19;;;;;;;;;;;;;;;;;;2199639;67;1264;-73
2022/03/22 13:19:53;;;;;;;;;;;;;;;;;;2209931;59;1188;-73
2022/03/22 13:22:28;;;;;;;;;;;;;;;;;;2206025;59;1279;-73
2022/03/22 13:25:12;;;;;;;;;;;;;;;;;;2209445;59;1578;-73
2022/03/22 13:27:45;;;;;;;;;;;;;;;;;;2209314;67;1931;-73
2022/03/22 13:30:19;;;;;;;;;;;;;;;;;;2210295;67;1106;-73
2022/03/22 13:32:53;;;;;;;;;;;;;;;;;;2209987;60;1271;-73
2022/03/22 13:35:26;;;;;;;;;;;;;;;;;;2209523;59;1282;-73
2022/03/22 13:38:01;;;;;;;;;;;;;;;;;;2210171;67;1286;-73
2022/03/22 13:40:41;;;;;;;;;;;;;;;;;;2206036;67;1586;-73
2022/03/22 13:43:14;;;;;;;;;;;;;;;;;;2209160;59;1653;-75
2022/03/22 13:45:51;;;;;;;;;;;;;;;;;;2209569;59;1240;-73
2022/03/22 13:48:24;;;;;;;;;;;;;;;;;;2209671;59;1922;-73
2022/03/22 13:50:58;;;;;;;;;;;;;;;;;;2209726;60;1261;-73
2022/03/22 13:53:35;;;;;;;;;;;;;;;;;;2209448;59;1199;-74
2022/03/22 13:56:13;;;;;;;;;;;;;;;;;;2209570;67;1240;-73
2022/03/22 13:58:48;;;;;;;;;;;;;;;;;;2210017;59;1172;-73
2022/03/22 14:01:22;;;;;;;;;;;;;;;;;;2209555;67;1010;-73
2022/03/22 14:03:55;;;;;;;;;;;;;;;;;;2209377;59;1692;-73
2022/03/22 14:06:29;;;;;;;;;;;;;;;;;;2209959;67;1215;-73
2022/03/22 14:09:02;;;;;;;;;;;;;;;;;;2209925;59;1986;-73
2022/03/22 14:11:38;;;;;;;;;;;;;;;;;;2210740;59;2105;-73
2022/03/22 14:14:11;;;;;;;;;;;;;;;;;;2209395;67;1266;-73
2022/03/22 14:16:44;;;;;;;;;;;;;;;;;;2210268;67;1195;-73
2022/03/22 14:19:20;;;;;;;;;;;;;;;;;;2209616;67;1200;-73
2022/03/22 14:21:53;;;;;;;;;;;;;;;;;;2209604;67;1197;-73
2022/03/22 14:24:27;;;;;;;;;;;;;;;;;;2209016;59;1606;-73
2022/03/22 14:27:03;;;;;;;;;;;;;;;;;;2209614;67;1159;-73
2022/03/22 14:29:36;;;;;;;;;;;;;;;;;;2209122;67;1944;-73
2022/03/22 14:32:09;;;;;;;;;;;;;;;;;;2210114;59;1176;-73
2022/03/22 14:37:31;;;;;;;;;;;;;;;;;;2208287;67;1266;-73
2022/03/22 14:40:04;;;;;;;;;;;;;;;;;;2210021;60;1256;-73
2022/03/22 14:42:40;;;;;;;;;;;;;;;;;;2210034;67;1300;-73
2022/03/22 14:45:13;;;;;;;;;;;;;;;;;;2210737;59;1680;-73
2022/03/22 14:47:49;;;;;;;;;;;;;;;;;;2209346;59;1238;-73
2022/03/22 14:50:24;;;;;;;;;;;;;;;;;;2210329;59;1933;-73
2022/03/22 14:55:47;;;;;;;;;;;;;;;;;;2210084;59;2287;-75
2022/03/22 15:01:12;;;;;;;;;;;;;;;;;;2206312;67;1009;-73
2022/03/22 15:03:47;;;;;;;;;;;;;;;;;;2209581;59;1654;-73
2022/03/22 15:06:20;;;;;;;;;;;;;;;;;;2209209;59;1255;-73
2022/03/22 15:08:53;;;;;;;;;;;;;;;;;;2210455;67;2322;-73
2022/03/22 15:11:27;;;;;;;;;;;;;;;;;;2210548;62;1159;-73
2022/03/22 15:14:05;;;;;;;;;;;;;;;;;;2211206;59;1266;-73
2022/03/22 15:16:38;;;;;;;;;;;;;;;;;;2210683;67;1209;-74
2022/03/22 15:19:12;;;;;;;;;;;;;;;;;;2210188;67;1113;-73
2022/03/22 15:21:45;;;;;;;;;;;;;;;;;;2210056;67;1124;-73
2022/03/22 15:24:18;;;;;;;;;;;;;;;;;;2205844;59;1732;-73
2022/03/22 15:26:52;;;;;;;;;;;;;;;;;;2209442;59;1565;-73
2022/03/22 15:29:28;;;;;;;;;;;;;;;;;;2209173;59;1908;-73
2022/03/22 15:32:01;;;;;;;;;;;;;;;;;;2211283;67;1565;-73
2022/03/22 15:34:34;;;;;;;;;;;;;;;;;;2210379;59;1203;-73
2022/03/22 15:37:08;;;;;;;;;;;;;;;;;;2210923;67;1130;-73
2022/03/22 15:39:41;;;;;;;;;;;;;;;;;;2209827;59;1893;-73
2022/03/22 15:42:14;;;;;;;;;;;;;;;;;;2210020;59;1227;-73
2022/03/22 15:44:50;;;;;;;;;;;;;;;;;;2209908;59;1574;-73
2022/03/22 15:47:23;;;;;;;;;;;;;;;;;;2210088;59;1179;-73
2022/03/22 15:49:57;;;;;;;;;;;;;;;;;;2209510;67;2549;-73
2022/03/22 15:52:30;;;;;;;;;;;;;;;;;;2210194;67;1113;-73
2022/03/22 15:55:04;;;;;;;;;;;;;;;;;;2210041;67;1259;-73
2022/03/22 15:57:37;;;;;;;;;;;;;;;;;;2210012;67;1168;-73
2022/03/22 16:00:14;;;;;;;;;;;;;;;;;;2210679;67;1081;-73
2022/03/22 16:02:47;;;;;;;;;;;;;;;;;;2210537;67;1222;-73
2022/03/22 16:05:21;;;;;;;;;;;;;;;;;;2206393;59;1702;-73
2022/03/22 16:07:55;;;;;;;;;;;;;;;;;;2209601;59;2028;-73
2022/03/22 16:10:28;;;;;;;;;;;;;;;;;;2210156;67;1936;-73
2022/03/22 16:13:01;;;;;;;;;;;;;;;;;;2210221;59;2051;-73
2022/03/22 16:15:37;;;;;;;;;;;;;;;;;;2210323;59;1233;-73
2022/03/22 16:18:10;;;;;;;;;;;;;;;;;;2210258;67;1188;-73
2022/03/22 16:20:44;;;;;;;;;;;;;;;;;;2210326;67;957;-73
2022/03/22 16:23:18;;;;;;;;;;;;;;;;;;2210490;59;1709;-73
2022/03/22 16:25:51;;;;;;;;;;;;;;;;;;2210533;67;1243;-73
2022/03/22 16:28:24;;;;;;;;;;;;;;;;;;2208884;67;1122;-73
2022/03/22 16:31:00;;;;;;;;;;;;;;;;;;2209059;67;1986;-73
2022/03/22 16:39:24;;;;;;;;;;;;;;;;;;2198101;67;1251;-73
2022/03/22 16:41:58;;;;;;;;;;;;;;;;;;2204542;67;1759;-72
2022/03/22 16:44:34;;;;;;;;;;;;;;;;;;2209890;59;1666;-73
2022/03/22 16:47:11;;;;;;;;;;;;;;;;;;2210568;59;1172;-73
2022/03/22 16:49:46;;;;;;;;;;;;;;;;;;2210223;67;1931;-75
2022/03/22 16:52:20;;;;;;;;;;;;;;;;;;2210363;59;2033;-73
2022/03/22 16:54:56;;;;;;;;;;;;;;;;;;2209152;67;1194;-73
2022/03/22 16:57:30;;;;;;;;;;;;;;;;;;2210400;67;1286;-73
2022/03/22 17:00:03;;;;;;;;;;;;;;;;;;2206662;67;1804;-73
2022/03/22 17:02:39;;;;;;;;;;;;;;;;;;2208496;67;1517;-72
2022/03/22 17:05:12;;;;;;;;;;;;;;;;;;2205720;59;1714;-73
2022/03/22 17:07:46;;;;;;;;;;;;;;;;;;2209456;59;2045;-73
2022/03/22 17:10:19;;;;;;;;;;;;;;;;;;2209591;67;1933;-73
2022/03/22 17:12:53;;;;;;;;;;;;;;;;;;2209979;59;2020;-73
2022/03/22 17:15:27;;;;;;;;;;;;;;;;;;2209286;67;1267;-73
2022/03/22 17:18:04;;;;;;;;;;;;;;;;;;2210084;67;1168;-73
2022/03/22 17:20:38;;;;;;;;;;;;;;;;;;2209563;67;1236;-73
2022/03/22 17:23:11;;;;;;;;;;;;;;;;;;2209291;59;1557;-73
2022/03/22 17:25:46;;;;;;;;;;;;;;;;;;2210659;59;1747;-73
2022/03/22 17:28:19;;;;;;;;;;;;;;;;;;2209469;67;2077;-73
2022/03/22 17:30:53;;;;;;;;;;;;;;;;;;2209932;67;1926;-73
2022/03/22 17:33:30;;;;;;;;;;;;;;;;;;2209735;59;1286;-73
2022/03/22 17:36:04;;;;;;;;;;;;;;;;;;2209957;59;1663;-73
2022/03/22 17:38:38;;;;;;;;;;;;;;;;;;2210585;59;1214;-73
2022/03/22 17:41:11;;;;;;;;;;;;;;;;;;2210018;67;1214;-73
2022/03/22 17:43:46;;;;;;;;;;;;;;;;;;2210077;59;1736;-73
2022/03/22 17:46:20;;;;;;;;;;;;;;;;;;2205062;59;1335;-72
2022/03/22 17:48:56;;;;;;;;;;;;;;;;;;2209891;67;1203;-73
2022/03/22 17:51:30;;;;;;;;;;;;;;;;;;2209538;59;1936;-73
2022/03/22 17:54:03;;;;;;;;;;;;;;;;;;2209629;59;1230;-73
2022/03/22 17:56:36;;;;;;;;;;;;;;;;;;2209921;67;1128;-73
2022/03/22 17:59:10;;;;;;;;;;;;;;;;;;2209187;67;1210;-72
2022/03/22 18:01:43;;;;;;;;;;;;;;;;;;2206237;67;1244;-73
2022/03/22 18:04:19;;;;;;;;;;;;;;;;;;2209265;59;1650;-72
2022/03/22 18:06:53;;;;;;;;;;;;;;;;;;2210574;59;2142;-72
2022/03/22 18:09:27;;;;;;;;;;;;;;;;;;2210718;67;1920;-72
2022/03/22 18:12:02;;;;;;;;;;;;;;;;;;2209862;59;2056;-73
2022/03/22 18:14:37;;;;;;;;;;;;;;;;;;2210524;67;1274;-72
2022/03/22 18:17:11;;;;;;;;;;;;;;;;;;2210754;59;1215;-73
2022/03/22 18:19:52;;;;;;;;;;;;;;;;;;2206693;67;1267;-72
2022/03/22 18:22:27;;;;;;;;;;;;;;;;;;2209291;67;1361;-72
2022/03/22 18:25:02;;;;;;;;;;;;;;;;;;2212657;53;2005;-69
2022/03/22 18:27:45;;;;;;;;;;;;;;;;;;2212371;59;1189;-69
2022/03/22 18:30:19;;;;;;;;;;;;;;;;;;2213930;59;1925;-69
2022/03/22 18:32:56;;;;;;;;;;;;;;;;;;2213836;59;1235;-69
2022/03/22 18:35:32;;;;;;;;;;;;;;;;;;2211467;67;1262;-69
2022/03/22 18:38:12;;;;;;;;;;;;;;;;;;2210805;59;1232;-69
2022/03/22 18:40:54;;;;;;;;;;;;;;;;;;2211922;59;1163;-70
2022/03/22 18:43:28;;;;;;;;;;;;;;;;;;2210089;59;1882;-69
2022/03/22 18:46:03;;;;;;;;;;;;;;;;;;2211256;67;1166;-69
2022/03/22 18:51:40;;;;;;;;;;;;;;;;;;2208528;67;2031;-69
2022/03/22 18:54:16;;;;;;;;;;;;;;;;;;2210519;67;1207;-69
2022/03/22 18:56:58;;;;;;;;;;;;;;;;;;2211314;67;1238;-69
2022/03/22 18:59:32;;;;;;;;;;;;;;;;;;2211455;59;1117;-69
2022/03/22 19:02:05;;;;;;;;;;;;;;;;;;2210883;67;1282;-69
2022/03/22 19:04:39;;;;;;;;;;;;;;;;;;2210987;59;1775;-69
2022/03/22 19:07:15;;;;;;;;;;;;;;;;;;2211486;59;1989;-69
2022/03/22 19:09:48;;;;;;;;;;;;;;;;;;2211337;67;1927;-69
2022/03/22 19:12:23;;;;;;;;;;;;;;;;;;2211851;59;1813;-69
2022/03/22 19:14:56;;;;;;;;;;;;;;;;;;2211408;59;1364;-69
2022/03/22 19:20:20;;;;;;;;;;;;;;;;;;2211107;67;1139;-69
2022/03/22 19:22:56;;;;;;;;;;;;;;;;;;2211721;67;1298;-69
2022/03/22 19:25:31;;;;;;;;;;;;;;;;;;2210039;59;1811;-69
2022/03/22 19:28:04;;;;;;;;;;;;;;;;;;2211475;67;1178;-69
2022/03/22 19:32:53;;;;;;;;;;;;;;;;;;2211021;67;1939;-69
2022/03/22 19:33:30;;;;;;;;;;;;;;;;;;2210433;59;1247;-69